Ana Sayfa
METAR-TAF:

METAR-TAF

Havaalanları :

Williamson County Regional Airport

Marion, Illinois, Amerika Birleşik Devletleri

Enlem: 37-45-01N, Boylam: 089-00-04W, yükseklik: 144 m

Güncel hava durumu gözlemi

Rapor saat 21:45 UTC de 55 dakika önce yapıldı.
Rüzgar güneybatıdan 6 kt
Sıcaklık 31°C
Nem 52%
Basınç 1024 hPa
Görüş mesafesi: 32.2 km
5500 ft yükseklikte parçalı çok bulutlu

METAR: KMWA 202145Z 23006KT 20SM BKN055 31/20 A3025

Saat: 17:40 (22:40 UTC)


TAF: eksik

4.000'den fazla havaalanı için hava durumu gözlemleri ve tahminleri (METAR ve TAF raporları).

Kullanılabilir istasyonlar harita üzerinde sarı ve kırmızı noktalarla gösterilir.

İstasyonun adını görmek için fareyi noktanın üzerinde gezdirin.

Sonrasında hava gözlem ve tahminlerini görmek için tıklayın.

Haritayı değiştirmek için: yaklaştırmak için siyah artı işaretli yeşil düğmeye ve uzaklaştırmak için de eksi işaretli düğmeye hızla tıklayın; bitişik haritalar için yeşil okları kullanın.


METAR-TAF: